Time;durP1;ratioP1;P1;durP2;ratioP2;P2;SDS_P1;SDS_P2;PMS_P1;PMS_P2;Temp;Humidity;BMP_temperature;BMP_pressure;BME280_temperature;BME280_humidity;BME280_pressure;Samples;Min_cycle;Max_cycle;Signal;HPM_P1;HPM_P2
2022/09/08 00:02:17;;;;;;;3.38;2.28;;;;;;;15.24;89.37;95845.84;10362016;28;98631;-59
2022/09/08 00:07:22;;;;;;;3.45;2.10;;;;;;;15.19;88.96;95859.53;10369038;28;97047;-59
2022/09/08 00:12:25;;;;;;;3.30;2.38;;;;;;;15.12;89.23;95869.97;10358921;28;98551;-59
2022/09/08 00:17:29;;;;;;;4.75;2.75;;;;;;;15.04;89.29;95875.34;10348223;28;97834;-58
2022/09/08 00:22:33;;;;;;;3.30;2.30;;;;;;;14.94;89.19;95856.44;10368701;28;97498;-58
2022/09/08 00:27:36;;;;;;;3.23;1.90;;;;;;;15.06;89.41;95876.00;10353593;28;99067;-59
2022/09/08 00:32:38;;;;;;;2.83;2.22;;;;;;;15.08;89.35;95847.69;10350119;28;96970;-58
2022/09/08 00:37:43;;;;;;;4.10;2.88;;;;;;;15.14;89.34;95838.22;10362520;28;96917;-59
2022/09/08 00:42:45;;;;;;;4.90;2.80;;;;;;;15.21;89.39;95810.16;10369239;28;97114;-59
2022/09/08 00:47:55;;;;;;;5.47;3.20;;;;;;;15.29;88.78;95811.88;10371475;28;99100;-58
2022/09/08 00:53:03;;;;;;;4.38;3.60;;;;;;;15.32;89.36;95829.91;10374058;28;96815;-58
2022/09/08 00:58:07;;;;;;;6.25;3.45;;;;;;;15.29;89.22;95823.22;10363277;28;96868;-62
2022/09/08 01:03:12;;;;;;;4.68;3.50;;;;;;;15.27;89.59;95816.53;10360837;28;98288;-58
2022/09/08 01:13:48;;;;;;;7.70;3.40;;;;;;;15.18;89.28;95815.00;10371424;28;97589;-59
2022/09/08 01:18:54;;;;;;;4.90;3.22;;;;;;;15.17;89.40;95823.91;10353631;28;96772;-59
2022/09/08 01:24:28;;;;;;;4.70;3.28;;;;;;;15.16;89.89;95838.03;10372628;28;96787;-58
2022/09/08 01:29:34;;;;;;;4.93;3.20;;;;;;;15.19;89.80;95819.25;10343252;28;98167;-58
2022/09/08 01:34:41;;;;;;;5.53;3.85;;;;;;;15.24;89.71;95816.88;10361501;28;98088;-59
2022/09/08 01:39:45;;;;;;;4.22;3.22;;;;;;;15.25;89.23;95814.06;10378876;28;96915;-59
2022/09/08 01:44:49;;;;;;;4.20;3.30;;;;;;;15.22;89.79;95843.38;10365937;28;97158;-59
2022/09/08 01:49:52;;;;;;;5.77;3.93;;;;;;;15.17;89.57;95858.09;10374101;28;96798;-58
2022/09/08 01:54:54;;;;;;;7.05;4.07;;;;;;;15.16;90.15;95853.84;10349519;28;97481;-58
2022/09/08 01:59:58;;;;;;;7.30;4.03;;;;;;;15.15;90.34;95865.34;10350799;28;98780;-59
2022/09/08 02:05:01;;;;;;;5.73;3.57;;;;;;;15.18;90.07;95855.25;10349145;28;97722;-60
2022/09/08 02:10:07;;;;;;;5.05;2.38;;;;;;;15.09;89.94;95848.50;10359983;28;97780;-59
2022/09/08 02:15:12;;;;;;;3.17;2.05;;;;;;;14.99;89.78;95840.91;10407181;28;96806;-58
2022/09/08 02:20:15;;;;;;;;;;;;;;;15.02;89.39;95842.34;10402516;28;96741;-58
2022/09/08 02:25:18;;;;;;;3.60;1.90;;;;;;;14.96;89.38;95828.13;10374822;28;96856;-58
2022/09/08 02:30:22;;;;;;;3.47;2.00;;;;;;;14.91;89.34;95835.75;10374160;28;96761;-59
2022/09/08 02:35:25;;;;;;;4.68;2.08;;;;;;;14.85;88.98;95837.31;10399052;28;96738;-58
2022/09/08 02:40:28;;;;;;;3.20;2.00;;;;;;;14.79;89.35;95842.50;10413629;28;97111;-58
2022/09/08 02:45:32;;;;;;;3.55;2.20;;;;;;;14.70;89.71;95839.94;10396463;28;96656;-59
2022/09/08 02:50:35;;;;;;;3.53;2.40;;;;;;;14.60;89.07;95828.91;10372521;28;98482;-58
2022/09/08 02:55:39;;;;;;;3.67;1.73;;;;;;;14.59;89.70;95843.03;10372929;28;97067;-59
2022/09/08 03:00:43;;;;;;;4.40;2.20;;;;;;;14.58;88.63;95836.16;10379113;28;96709;-58
2022/09/08 03:05:45;;;;;;;3.00;1.93;;;;;;;14.53;88.78;95825.38;10380393;28;96711;-59
2022/09/08 03:10:49;;;;;;;3.38;2.35;;;;;;;14.44;88.77;95827.28;10379814;28;96695;-58
2022/09/08 03:15:54;;;;;;;3.45;2.47;;;;;;;14.30;88.70;95828.88;10379291;28;97514;-58
2022/09/08 03:21:01;;;;;;;4.07;2.35;;;;;;;14.19;89.21;95816.19;10374415;28;97991;-58
2022/09/08 03:26:05;;;;;;;4.00;2.60;;;;;;;13.99;88.28;95808.84;10376496;28;96823;-58
2022/09/08 03:31:13;;;;;;;5.25;2.50;;;;;;;13.96;88.72;95811.81;10379556;28;96665;-58
2022/09/08 03:36:17;;;;;;;5.25;3.22;;;;;;;13.87;88.54;95807.66;10379594;28;97637;-58
2022/09/08 03:41:20;;;;;;;5.93;3.47;;;;;;;13.82;88.34;95808.16;10378662;28;96644;-58
2022/09/08 03:46:24;;;;;;;6.97;3.50;;;;;;;13.77;89.14;95801.84;10378775;28;96751;-58
2022/09/08 03:51:28;;;;;;;6.03;2.50;;;;;;;13.71;88.93;95813.06;10358996;28;97040;-58
2022/09/08 03:56:30;;;;;;;7.07;2.60;;;;;;;13.68;88.96;95802.91;10336867;28;96775;-58
2022/09/08 04:01:35;;;;;;;5.32;2.95;;;;;;;13.60;88.65;95828.25;10337103;28;96904;-58
2022/09/08 04:06:38;;;;;;;4.30;2.45;;;;;;;13.54;88.60;95828.13;10336873;28;97166;-58
2022/09/08 04:11:40;;;;;;;4.65;2.53;;;;;;;13.46;88.48;95818.50;10366446;28;96737;-58
2022/09/08 04:16:44;;;;;;;5.47;2.80;;;;;;;13.31;88.37;95825.47;10377653;28;96719;-58
2022/09/08 04:21:47;;;;;;;2.60;1.80;;;;;;;13.18;88.96;95829.50;10356456;28;96996;-58
2022/09/08 04:26:50;;;;;;;4.40;2.40;;;;;;;13.14;89.14;95833.47;10336939;28;97016;-58
2022/09/08 04:31:54;;;;;;;7.95;2.80;;;;;;;13.01;88.99;95838.47;10336007;28;96823;-58
2022/09/08 04:36:57;;;;;;;8.60;3.33;;;;;;;12.91;89.30;95845.72;10340621;28;96754;-58
2022/09/08 04:42:00;;;;;;;5.90;2.33;;;;;;;12.85;88.95;95852.44;10387149;28;96756;-58
2022/09/08 04:47:04;;;;;;;4.93;2.35;;;;;;;12.80;89.11;95845.09;10376887;28;96942;-58
2022/09/08 04:52:07;;;;;;;6.30;2.70;;;;;;;12.87;89.09;95847.84;10376147;28;96723;-58
2022/09/08 04:57:09;;;;;;;7.43;2.78;;;;;;;12.80;89.06;95858.19;10375671;28;97075;-59
2022/09/08 05:02:14;;;;;;;5.05;2.88;;;;;;;12.77;88.78;95858.56;10376254;28;96773;-58
2022/09/08 05:07:16;;;;;;;5.03;2.30;;;;;;;12.74;88.95;95876.44;10334799;28;97158;-57
2022/09/08 05:12:19;;;;;;;6.72;2.60;;;;;;;12.60;89.03;95885.81;10371237;28;97946;-59
2022/09/08 05:17:23;;;;;;;5.53;2.50;;;;;;;12.60;89.16;95885.81;10376601;28;96754;-57
2022/09/08 05:22:26;;;;;;;4.60;2.60;;;;;;;12.56;89.43;95900.22;10346451;28;98504;-60
2022/09/08 05:27:29;;;;;;;5.55;2.55;;;;;;;12.59;88.91;95889.41;10333971;28;96705;-58
2022/09/08 05:32:35;;;;;;;8.20;3.47;;;;;;;12.53;89.15;95900.56;10332979;28;96702;-58
2022/09/08 05:37:38;;;;;;;4.45;2.78;;;;;;;12.53;89.45;95897.94;10333719;28;96798;-57
2022/09/08 05:42:42;;;;;;;7.20;2.60;;;;;;;12.62;89.00;95896.94;10334698;28;96927;-58
2022/09/08 05:47:46;;;;;;;6.40;2.90;;;;;;;12.55;89.41;95903.84;10333770;28;96781;-59
2022/09/08 05:52:49;;;;;;;5.70;2.50;;;;;;;12.53;89.34;95914.50;10363404;28;97396;-58
2022/09/08 05:57:51;;;;;;;6.47;3.10;;;;;;;12.54;90.03;95916.09;10374619;28;96715;-58
2022/09/08 06:03:15;;;;;;;4.63;2.58;;;;;;;12.59;90.01;95913.81;10375045;28;98134;-58
2022/09/08 06:08:20;;;;;;;7.40;3.20;;;;;;;12.67;89.52;95915.59;10374884;28;97293;-58
2022/09/08 06:13:23;;;;;;;6.47;3.28;;;;;;;12.81;89.57;95912.25;10374100;28;97077;-58
2022/09/08 06:18:27;;;;;;;7.88;3.53;;;;;;;13.00;89.35;95918.13;10373959;28;96915;-58
2022/09/08 06:23:30;;;;;;;6.00;2.90;;;;;;;13.12;89.94;95929.88;10335421;28;98058;-58
2022/09/08 06:28:41;;;;;;;4.85;2.33;;;;;;;13.34;89.20;95924.84;10332235;28;96818;-57
2022/09/08 06:33:46;;;;;;;3.00;2.00;;;;;;;13.48;89.20;95918.03;10331842;28;96662;-58
2022/09/08 06:38:53;;;;;;;6.07;2.30;;;;;;;13.60;89.84;95922.72;10332140;28;96842;-58
2022/09/08 06:44:03;;;;;;;5.85;2.10;;;;;;;13.67;89.37;95911.50;10366535;28;98061;-58
2022/09/08 06:49:10;;;;;;;5.63;2.55;;;;;;;13.75;90.17;95914.09;10410880;28;96889;-59
2022/09/08 06:54:35;;;;;;;3.55;2.30;;;;;;;13.83;90.22;95921.91;10386156;28;96646;-57
2022/09/08 06:59:47;;;;;;;4.18;2.30;;;;;;;13.98;89.68;95916.69;10415583;28;96977;-58
2022/09/08 07:04:58;;;;;;;4.63;2.03;;;;;;;14.06;90.14;95918.44;10414238;28;96657;-58
2022/09/08 07:10:05;;;;;;;3.00;1.70;;;;;;;14.10;89.36;95924.97;10397029;27;96674;-58
2022/09/08 07:15:27;;;;;;;3.45;1.90;;;;;;;14.18;89.58;95925.72;10372228;28;96968;-58
2022/09/08 07:20:31;;;;;;;4.38;1.75;;;;;;;14.27;89.66;95920.38;10357961;28;97122;-58
2022/09/08 07:25:38;;;;;;;3.78;1.58;;;;;;;14.32;88.94;95916.25;10353660;28;96849;-58
2022/09/08 07:30:42;;;;;;;4.53;1.90;;;;;;;14.40;88.67;95914.53;10413816;28;96853;-58
2022/09/08 07:36:12;;;;;;;4.97;1.90;;;;;;;14.48;89.28;95909.22;10413447;28;96798;-59
2022/09/08 07:41:21;;;;;;;3.40;1.77;;;;;;;14.62;89.07;95916.28;10408709;28;96864;-57
2022/09/08 07:46:50;;;;;;;3.95;1.50;;;;;;;14.72;88.31;95916.81;10378801;28;96798;-59
2022/09/08 07:52:01;;;;;;;3.97;1.70;;;;;;;14.82;88.59;95911.31;10378540;28;97230;-58
2022/09/08 07:57:14;;;;;;;4.03;1.23;;;;;;;14.92;87.66;95895.22;10411385;28;96728;-59
2022/09/08 08:02:56;;;;;;;4.43;1.73;;;;;;;15.07;86.87;95901.28;10419677;27;96769;-58
2022/09/08 08:08:12;;;;;;;4.22;1.77;;;;;;;15.16;86.49;95902.00;10418141;27;97069;-58
2022/09/08 08:13:24;;;;;;;3.25;1.65;;;;;;;15.20;85.63;95918.22;10377780;28;97299;-58
2022/09/08 08:18:35;;;;;;;3.10;1.58;;;;;;;15.30;84.98;95934.53;10377694;28;96667;-58
2022/09/08 08:24:10;;;;;;;3.33;1.67;;;;;;;15.45;84.93;95937.97;10336438;28;97083;-58
2022/09/08 08:29:49;;;;;;;4.20;2.00;;;;;;;15.60;84.81;95934.50;10328069;28;96929;-58
2022/09/08 08:34:57;;;;;;;3.63;1.70;;;;;;;15.62;83.33;95927.25;10417312;28;96962;-58
2022/09/08 08:40:04;;;;;;;4.28;1.70;;;;;;;15.74;83.11;95930.19;10418616;28;96698;-58
2022/09/08 08:45:19;;;;;;;5.72;1.50;;;;;;;15.87;82.95;95931.13;10419593;27;96847;-58
2022/09/08 08:50:52;;;;;;;4.32;1.60;;;;;;;16.12;82.90;95937.81;10399255;28;96703;-58
2022/09/08 08:56:11;;;;;;;6.70;1.40;;;;;;;16.50;81.88;95940.16;10376152;28;96756;-58
2022/09/08 09:01:29;;;;;;;5.35;1.50;;;;;;;16.77;80.55;95946.47;10375130;28;97055;-58
2022/09/08 09:06:54;;;;;;;2.22;1.20;;;;;;;17.02;79.24;95943.34;10375976;28;96839;-59
2022/09/08 09:12:13;;;;;;;3.22;1.20;;;;;;;17.31;79.43;95952.81;10375063;28;97669;-58
2022/09/08 09:17:37;;;;;;;3.38;1.25;;;;;;;17.61;78.94;95952.53;10375735;28;96735;-59
2022/09/08 09:22:48;;;;;;;3.25;1.50;;;;;;;17.69;77.31;95955.78;10374795;28;97095;-59
2022/09/08 09:28:18;;;;;;;2.35;1.13;;;;;;;17.75;76.98;95936.50;10375982;28;96658;-59
2022/09/08 09:33:58;;;;;;;3.90;1.00;;;;;;;17.91;76.54;95947.75;10375712;28;96774;-59
2022/09/08 09:39:25;;;;;;;2.60;1.05;;;;;;;18.09;76.59;95940.03;10375359;28;96712;-59
2022/09/08 09:44:49;;;;;;;3.08;1.20;;;;;;;18.24;76.46;95931.13;10374947;28;96942;-58
2022/09/08 09:50:28;;;;;;;3.40;1.20;;;;;;;18.41;76.93;95937.63;10359608;28;97983;-58
2022/09/08 09:55:53;;;;;;;3.47;1.40;;;;;;;18.66;74.78;95931.69;10332406;28;97937;-58
2022/09/08 10:01:21;;;;;;;;;;;;;;;18.89;75.92;95928.63;10333217;28;98162;-58
2022/09/08 10:06:26;;;;;;;3.00;1.40;;;;;;;19.22;73.39;95933.81;10332679;28;96878;-60
2022/09/08 10:11:56;;;;;;;2.78;1.15;;;;;;;19.49;74.31;95930.22;10389304;28;96957;-58
2022/09/08 10:17:39;;;;;;;3.75;1.55;;;;;;;19.57;72.03;95920.19;10407255;27;96904;-58
2022/09/08 10:23:33;;;;;;;6.13;1.05;;;;;;;19.49;69.94;95923.09;10382927;28;96805;-59
2022/09/08 10:29:02;;;;;;;18.83;11.83;;;;;;;19.15;67.86;95905.72;10220155;28;96958;-59
2022/09/08 10:34:28;;;;;;;6.80;2.25;;;;;;;18.82;70.14;95909.25;10205638;28;97017;-60
2022/09/08 10:39:47;;;;;;;2.08;0.90;;;;;;;18.80;66.95;95901.53;10205350;28;96799;-59
2022/09/08 10:45:13;;;;;;;3.70;1.73;;;;;;;18.76;66.59;95908.28;10192051;28;97420;-59
2022/09/08 10:50:22;;;;;;;1.80;0.63;;;;;;;18.94;63.13;95899.69;10202765;28;97235;-58
2022/09/08 10:56:01;;;;;;;1.52;0.50;;;;;;;18.90;61.80;95893.19;10204700;28;97052;-58
2022/09/08 11:01:28;;;;;;;1.65;0.90;;;;;;;18.68;63.86;95885.47;10384181;28;97275;-57
2022/09/08 11:06:52;;;;;;;2.03;0.82;;;;;;;18.82;63.09;95875.66;10374752;28;96738;-58
2022/09/08 11:12:20;;;;;;;2.85;0.90;;;;;;;18.77;63.16;95878.13;10404053;28;97222;-59
2022/09/08 11:17:24;;;;;;;4.93;1.52;;;;;;;18.83;63.66;95866.72;10404735;27;96889;-58
2022/09/08 11:22:53;;;;;;;1.60;0.73;;;;;;;19.10;63.15;95869.28;10372420;28;96806;-58
2022/09/08 11:28:07;;;;;;;4.18;0.90;;;;;;;19.31;62.44;95865.53;10349428;28;97293;-59
2022/09/08 11:33:21;;;;;;;2.45;0.60;;;;;;;19.52;61.10;95861.75;10379406;28;97261;-58
2022/09/08 11:39:05;;;;;;;2.70;0.93;;;;;;;19.78;59.42;95866.06;10378839;28;96681;-60
2022/09/08 11:44:49;;;;;;;2.42;0.70;;;;;;;19.92;59.64;95864.16;10404824;28;96680;-58
2022/09/08 11:50:24;;;;;;;1.60;0.67;;;;;;;20.02;60.30;95862.88;10248369;28;96958;-58
2022/09/08 11:55:59;;;;;;;1.23;0.50;;;;;;;20.05;57.99;95857.13;10250384;28;96920;-59
2022/09/08 12:01:16;;;;;;;3.88;0.70;;;;;;;19.90;57.76;95858.25;10250869;28;97035;-59
2022/09/08 12:06:39;;;;;;;1.45;0.57;;;;;;;20.05;58.68;95846.53;10250765;28;97018;-58
2022/09/08 12:12:07;;;;;;;1.20;0.60;;;;;;;20.16;57.00;95851.09;10218897;28;96926;-59
2022/09/08 12:17:19;;;;;;;2.27;0.73;;;;;;;20.22;57.48;95855.56;10210073;28;96893;-58
2022/09/08 12:22:47;;;;;;;1.15;0.50;;;;;;;20.29;58.45;95850.19;10173762;28;99063;-58
2022/09/08 12:28:10;;;;;;;1.85;0.80;;;;;;;20.55;57.65;95846.47;10336376;28;96745;-58
2022/09/08 12:33:45;;;;;;;1.63;0.73;;;;;;;20.91;56.79;95855.47;10336007;28;96860;-58
2022/09/08 12:39:15;;;;;;;1.02;0.57;;;;;;;21.15;55.24;95845.00;10334816;28;96733;-59
2022/09/08 12:44:32;;;;;;;1.25;0.68;;;;;;;21.38;56.31;95838.97;10335880;28;96841;-58
2022/09/08 12:49:59;;;;;;;2.28;0.98;;;;;;;21.64;55.90;95846.59;10354938;28;97387;-58
2022/09/08 12:55:13;;;;;;;1.80;0.77;;;;;;;21.58;55.43;95844.81;10417985;28;96719;-59
2022/09/08 13:00:20;;;;;;;1.37;0.60;;;;;;;21.41;55.82;95849.94;10352801;28;96752;-59
2022/09/08 13:05:42;;;;;;;1.70;0.60;;;;;;;20.94;55.14;95855.03;10334868;28;96708;-58
2022/09/08 13:10:46;;;;;;;2.25;0.60;;;;;;;20.52;54.74;95862.81;10357684;28;96845;-58
2022/09/08 13:16:01;;;;;;;2.55;0.80;;;;;;;20.42;56.17;95858.00;10376852;28;96825;-58
2022/09/08 13:21:13;;;;;;;0.77;0.50;;;;;;;20.26;56.13;95859.38;10375578;28;96780;-59
2022/09/08 13:26:53;;;;;;;1.98;0.60;;;;;;;20.43;57.04;95853.53;10390075;28;97063;-59
2022/09/08 13:32:05;;;;;;;2.58;0.75;;;;;;;20.78;53.58;95829.91;10416542;28;97126;-58
2022/09/08 13:37:29;;;;;;;0.47;0.32;;;;;;;20.98;51.39;95842.97;10416761;28;96644;-58
2022/09/08 13:42:48;;;;;;;1.60;0.40;;;;;;;21.21;51.30;95839.59;10390714;28;98215;-59
2022/09/08 13:48:10;;;;;;;2.72;0.55;;;;;;;21.36;51.50;95838.38;10411993;28;96858;-58
2022/09/08 13:53:58;;;;;;;1.23;0.50;;;;;;;21.48;53.52;95828.59;10371113;28;96784;-58
2022/09/08 13:59:15;;;;;;;1.42;0.38;;;;;;;21.58;55.10;95833.38;10286876;28;96923;-58
2022/09/08 14:04:27;;;;;;;2.90;0.50;;;;;;;21.83;54.10;95826.06;10286639;28;97670;-58
2022/09/08 14:09:32;;;;;;;1.33;0.90;;;;;;;22.05;52.13;95833.47;10284124;28;97042;-58
2022/09/08 14:15:05;;;;;;;3.47;0.70;;;;;;;21.67;53.09;95832.03;10246479;28;97241;-58
2022/09/08 14:20:20;;;;;;;1.05;0.50;;;;;;;21.68;51.71;95836.31;10241991;28;96990;-58
2022/09/08 14:25:27;;;;;;;1.75;0.57;;;;;;;21.88;49.95;95834.19;10285839;28;96986;-58
2022/09/08 14:30:43;;;;;;;1.20;0.35;;;;;;;22.18;48.30;95827.94;10284256;28;96996;-58
2022/09/08 14:35:49;;;;;;;0.90;0.40;;;;;;;22.27;45.55;95836.41;10341741;28;97329;-58
2022/09/08 14:41:06;;;;;;;2.42;0.40;;;;;;;22.19;45.53;95829.56;10413564;27;97141;-58
2022/09/08 14:46:16;;;;;;;1.50;0.40;;;;;;;22.21;44.50;95816.84;10414712;28;96701;-59
2022/09/08 14:51:33;;;;;;;1.67;0.63;;;;;;;22.35;45.16;95814.78;10372972;27;97972;-58
2022/09/08 14:56:40;;;;;;;2.60;0.40;;;;;;;22.68;44.27;95812.53;10339143;28;97640;-58
2022/09/08 15:01:47;;;;;;;1.35;0.40;;;;;;;22.80;42.98;95810.66;10339157;28;97324;-58
2022/09/08 15:06:59;;;;;;;1.42;0.50;;;;;;;22.89;44.01;95808.44;10339001;28;96675;-58
2022/09/08 15:12:21;;;;;;;1.58;0.43;;;;;;;23.09;42.25;95805.38;10372102;28;96996;-58
2022/09/08 15:17:29;;;;;;;2.35;0.47;;;;;;;23.35;42.07;95804.81;10378032;28;96678;-59
2022/09/08 15:22:44;;;;;;;1.95;0.30;;;;;;;23.84;42.14;95800.84;10379600;28;96977;-58
2022/09/08 15:27:49;;;;;;;1.75;0.43;;;;;;;24.42;41.02;95796.94;10369296;28;96700;-59
2022/09/08 15:33:12;;;;;;;2.25;0.50;;;;;;;24.23;39.51;95784.94;10365376;28;96789;-58
2022/09/08 15:38:38;;;;;;;0.68;0.20;;;;;;;24.83;40.61;95802.03;10377694;27;97296;-58
2022/09/08 15:43:52;;;;;;;2.47;0.65;;;;;;;25.20;40.52;95802.19;10410703;27;96876;-58
2022/09/08 15:49:05;;;;;;;2.63;0.80;;;;;;;25.21;39.06;95806.47;10414738;28;97269;-58
2022/09/08 15:54:36;;;;;;;1.70;0.50;;;;;;;24.64;38.48;95793.47;10405694;27;96756;-58
2022/09/08 15:59:56;;;;;;;1.45;0.47;;;;;;;24.18;39.78;95792.88;10376872;28;97654;-58
2022/09/08 16:05:11;;;;;;;2.00;0.55;;;;;;;24.58;41.40;95781.13;10352940;27;98199;-58
2022/09/08 16:10:16;;;;;;;;;;;;;;;24.87;41.50;95787.94;10371626;28;97051;-58
2022/09/08 16:15:28;;;;;;;1.80;0.38;;;;;;;25.49;40.43;95785.88;10377428;28;97023;-59
2022/09/08 16:20:32;;;;;;;2.20;0.38;;;;;;;25.92;38.04;95781.47;10377593;28;97567;-58
2022/09/08 16:25:41;;;;;;;;;;;;;;;26.54;39.19;95782.69;10378372;28;96585;-59
2022/09/08 16:31:06;;;;;;;0.85;0.35;;;;;;;27.05;36.69;95779.44;10352749;28;96786;-58
2022/09/08 16:36:16;;;;;;;1.58;0.55;;;;;;;26.90;38.16;95774.81;10335529;28;96700;-58
2022/09/08 16:41:36;;;;;;;0.90;0.40;;;;;;;26.81;39.85;95780.94;10335907;28;97717;-59
2022/09/08 16:46:41;;;;;;;1.83;0.50;;;;;;;26.39;39.00;95785.28;10336304;28;97078;-58
2022/09/08 16:51:54;;;;;;;1.58;0.40;;;;;;;25.71;38.48;95785.06;10336333;28;97050;-58
2022/09/08 16:57:09;;;;;;;2.15;0.45;;;;;;;25.40;39.43;95780.19;10335735;28;97098;-58
2022/09/08 17:02:20;;;;;;;1.15;0.40;;;;;;;24.66;39.64;95781.50;10358146;28;96777;-58
2022/09/08 17:07:31;;;;;;;1.67;0.50;;;;;;;23.82;42.59;95770.94;10335225;28;96665;-58
2022/09/08 17:12:38;;;;;;;3.20;0.80;;;;;;;23.18;43.69;95777.28;10372452;28;96819;-58
2022/09/08 17:18:05;;;;;;;1.88;0.70;;;;;;;22.66;45.58;95783.50;10375919;28;96771;-58
2022/09/08 17:23:15;;;;;;;2.88;0.98;;;;;;;22.08;45.44;95785.16;10375595;28;96706;-59
2022/09/08 17:29:08;;;;;;;1.98;0.60;;;;;;;21.72;46.51;95792.28;10373549;28;97275;-58
2022/09/08 17:34:38;;;;;;;2.15;0.50;;;;;;;21.54;48.52;95784.38;10361127;27;98627;-59
2022/09/08 17:39:48;;;;;;;3.30;0.70;;;;;;;21.22;47.98;95796.03;10374424;27;96836;-58
2022/09/08 17:45:12;;;;;;;2.28;0.70;;;;;;;20.89;47.81;95793.84;10366608;28;97199;-58
2022/09/08 17:50:26;;;;;;;2.67;0.77;;;;;;;20.72;49.01;95801.56;10343826;28;96801;-58
2022/09/08 17:55:43;;;;;;;2.35;0.70;;;;;;;20.43;48.64;95800.47;10365830;27;97150;-59
2022/09/08 18:00:52;;;;;;;6.85;3.92;;;;;;;20.13;50.06;95795.84;10360246;28;97795;-58
2022/09/08 18:06:16;;;;;;;1.20;0.50;;;;;;;19.93;50.04;95796.84;10369029;28;96886;-58
2022/09/08 18:11:34;;;;;;;3.83;1.03;;;;;;;19.75;50.40;95802.09;10356757;28;97644;-58
2022/09/08 18:16:40;;;;;;;4.03;2.38;;;;;;;19.66;50.86;95809.47;10339488;28;96887;-57
2022/09/08 18:22:16;;;;;;;3.17;1.20;;;;;;;19.53;51.91;95809.56;10362767;28;96948;-59
2022/09/08 18:27:39;;;;;;;1.70;0.60;;;;;;;19.37;51.78;95814.34;10204777;28;96829;-58
2022/09/08 18:32:59;;;;;;;3.38;1.05;;;;;;;19.18;53.50;95820.59;10206634;28;96896;-59
2022/09/08 18:38:17;;;;;;;2.53;1.25;;;;;;;18.99;53.99;95824.97;10238137;28;96771;-58
2022/09/08 18:43:30;;;;;;;10.45;2.78;;;;;;;18.83;54.31;95829.66;10257363;28;97021;-58
2022/09/08 18:48:46;;;;;;;5.80;2.15;;;;;;;18.71;55.30;95836.63;10249766;28;96899;-58
2022/09/08 18:54:37;;;;;;;3.25;1.50;;;;;;;18.53;56.19;95844.41;10285846;28;96772;-60
2022/09/08 19:00:00;;;;;;;4.53;1.40;;;;;;;18.30;56.77;95851.75;10245493;28;98595;-58
2022/09/08 19:05:14;;;;;;;4.07;1.77;;;;;;;18.34;55.91;95852.16;10344252;28;96884;-58
2022/09/08 19:10:31;;;;;;;9.32;2.40;;;;;;;18.24;56.72;95857.91;10373902;28;97198;-58
2022/09/08 19:15:50;;;;;;;5.53;1.77;;;;;;;18.17;56.54;95866.84;10371568;28;97247;-58
2022/09/08 19:20:56;;;;;;;5.47;1.20;;;;;;;18.10;57.41;95872.16;10371857;28;96751;-58
2022/09/08 19:26:21;;;;;;;5.38;2.17;;;;;;;18.17;57.79;95874.75;10349088;28;97494;-58
2022/09/08 19:31:34;;;;;;;3.58;1.60;;;;;;;18.26;57.25;95881.50;10371501;28;96710;-58
2022/09/08 19:36:50;;;;;;;5.10;1.40;;;;;;;18.18;57.30;95884.31;10371390;28;97137;-58
2022/09/08 19:42:03;;;;;;;4.38;1.17;;;;;;;18.05;58.50;95885.97;10348631;28;97392;-58
2022/09/08 19:47:24;;;;;;;4.88;1.20;;;;;;;18.06;57.62;95898.13;10337244;28;96692;-59
2022/09/08 19:52:33;;;;;;;2.38;1.13;;;;;;;18.12;57.84;95892.06;10366687;28;97272;-59
2022/09/08 19:57:41;;;;;;;2.65;0.88;;;;;;;18.24;57.56;95888.81;10369690;28;96715;-58
2022/09/08 20:03:00;;;;;;;3.35;1.17;;;;;;;18.29;57.72;95883.69;10351917;28;97853;-58
2022/09/08 20:08:21;;;;;;;3.30;1.20;;;;;;;18.33;56.06;95890.22;10399735;28;96893;-58
2022/09/08 20:13:28;;;;;;;3.35;0.80;;;;;;;18.37;57.61;95893.28;10370431;28;96922;-57
2022/09/08 20:18:41;;;;;;;3.25;0.90;;;;;;;18.25;57.75;95890.44;10337046;28;96832;-58
2022/09/08 20:23:52;;;;;;;2.20;0.95;;;;;;;18.19;55.92;95886.78;10367411;28;97358;-58
2022/09/08 20:29:08;;;;;;;4.47;0.90;;;;;;;18.23;55.82;95884.53;10350178;28;97122;-58
2022/09/08 20:34:30;;;;;;;1.70;0.93;;;;;;;18.20;57.25;95884.94;10356687;28;97257;-61
2022/09/08 20:39:52;;;;;;;5.25;2.85;;;;;;;18.09;57.46;95881.06;10362735;28;97118;-59
2022/09/08 20:45:13;;;;;;;4.38;1.85;;;;;;;17.91;57.34;95876.41;10373030;28;96857;-58
2022/09/08 20:50:21;;;;;;;2.70;0.73;;;;;;;17.85;57.19;95870.09;10380724;27;96833;-58
2022/09/08 20:55:25;;;;;;;2.58;0.77;;;;;;;17.70;56.64;95866.78;10345765;28;96719;-58
2022/09/08 21:00:31;;;;;;;5.72;0.98;;;;;;;17.60;57.22;95866.38;10376103;28;96620;-59
2022/09/08 21:05:36;;;;;;;2.78;0.80;;;;;;;17.45;58.08;95871.84;10359701;28;96970;-58
2022/09/08 21:10:42;;;;;;;;;;;;;;;17.34;57.31;95862.66;10368251;28;98656;-58
2022/09/08 21:15:55;;;;;;;3.20;1.30;;;;;;;17.31;57.83;95863.06;10350564;28;96765;-58
2022/09/08 21:21:05;;;;;;;4.25;1.48;;;;;;;17.34;58.31;95871.41;10377915;28;96989;-58
2022/09/08 21:26:17;;;;;;;4.18;1.90;;;;;;;17.44;56.98;95870.19;10341643;28;98631;-58
2022/09/08 21:31:36;;;;;;;2.00;0.93;;;;;;;17.42;56.87;95866.94;10355085;28;97228;-58
2022/09/08 21:36:48;;;;;;;1.75;0.50;;;;;;;17.42;57.21;95872.22;10368613;28;96855;-58
2022/09/08 21:42:00;;;;;;;3.42;0.98;;;;;;;17.41;56.48;95878.53;10358846;28;98164;-58
2022/09/08 21:47:11;;;;;;;1.52;0.60;;;;;;;17.43;56.74;95873.88;10345951;28;98068;-58
2022/09/08 21:52:22;;;;;;;1.35;0.77;;;;;;;17.44;57.06;95878.94;10333145;28;97962;-58
2022/09/08 21:57:37;;;;;;;2.65;0.70;;;;;;;17.37;57.25;95873.66;10333464;28;96714;-58
2022/09/08 22:02:52;;;;;;;;;;;;;;;17.35;57.25;95861.63;10333073;28;96828;-57
2022/09/08 22:08:04;;;;;;;3.00;0.70;;;;;;;17.43;55.71;95865.94;10333631;28;96799;-58
2022/09/08 22:13:20;;;;;;;2.42;0.70;;;;;;;17.40;56.33;95871.63;10331880;28;96897;-59
2022/09/08 22:18:33;;;;;;;3.20;0.85;;;;;;;17.29;57.19;95868.53;10331644;28;96711;-58
2022/09/08 22:23:49;;;;;;;2.08;0.70;;;;;;;17.34;57.13;95879.31;10332947;28;96889;-58
2022/09/08 22:28:52;;;;;;;2.28;0.70;;;;;;;17.37;57.42;95871.00;10332910;28;96812;-58
2022/09/08 22:34:04;;;;;;;1.65;0.70;;;;;;;17.36;57.04;95869.38;10332126;28;96940;-58
2022/09/08 22:39:23;;;;;;;3.13;0.85;;;;;;;17.37;56.49;95863.09;10332267;28;96655;-58
2022/09/08 22:44:29;;;;;;;2.85;0.80;;;;;;;17.46;56.74;95886.69;10332516;28;96820;-58
2022/09/08 22:49:43;;;;;;;3.53;0.70;;;;;;;17.40;57.18;95876.91;10332251;28;96756;-58
2022/09/08 22:54:51;;;;;;;2.65;0.73;;;;;;;17.50;56.99;95872.84;10332917;28;96830;-58
2022/09/08 22:59:57;;;;;;;0.90;0.50;;;;;;;17.58;56.19;95869.22;10371115;28;97934;-58
2022/09/08 23:05:12;;;;;;;1.27;0.43;;;;;;;17.66;56.08;95882.22;10372280;28;97374;-58
2022/09/08 23:10:17;;;;;;;1.55;0.70;;;;;;;17.76;54.92;95901.13;10352883;28;96845;-58
2022/09/08 23:15:25;;;;;;;1.40;0.65;;;;;;;17.84;55.73;95909.91;10335373;28;96963;-58
2022/09/08 23:20:42;;;;;;;1.85;0.47;;;;;;;17.83;55.43;95918.84;10338342;28;96967;-58
2022/09/08 23:25:45;;;;;;;2.47;0.47;;;;;;;17.67;57.65;95918.19;10338675;28;96781;-58
2022/09/08 23:30:53;;;;;;;2.42;0.60;;;;;;;17.09;61.83;95925.72;10338654;28;97479;-59
2022/09/08 23:36:00;;;;;;;1.85;0.50;;;;;;;16.43;65.05;95934.84;10338359;28;97158;-58
2022/09/08 23:41:03;;;;;;;2.47;0.65;;;;;;;16.24;66.15;95938.94;10362646;28;96981;-58
2022/09/08 23:46:13;;;;;;;1.40;0.50;;;;;;;16.03;67.57;95958.22;10379607;28;97077;-58
2022/09/08 23:51:20;;;;;;;1.17;0.63;;;;;;;15.93;68.74;95947.19;10378920;28;97088;-58
2022/09/08 23:56:23;;;;;;;1.50;0.80;;;;;;;15.90;69.43;95931.78;10378958;28;96826;-58
